Главная страница
METAR-TAF:

METAR-TAF

Аэропорты :

Бермудские острова, Бермуды

широта: 32-22N, долгота: 064-41W, высота над уровнем моря: 6 м

Текущие метеонаблюдения

Эта сводка был подготовлена 22 минут назад, в 05:55 UTC
Ветер 15 Узел от северно-северо-западный
Температура 22°C
Влажность 69%
Давление 1014 hPa
Видимость 10 км и более
Отдельные облака на высоте 3500 фута
Рассеянная облачность на высоте 7000 фута

METAR: TXKF 220555Z 34015KT 9999 SCT035 BKN070 22/16 Q1014

Время: 03:17 (06:17 UTC)

Прогноз

Эта сводка был подготовлена 33 минут назад, в 05:44 UTC
Прогноз действительный с 22-го 06 UTC до 23-го 06 UTC
Ветер 16 Узел от северный
Видимость 10 км и более
Отдельные облака на высоте 3500 фута
Рассеянная облачность на высоте 6000 фута
изменения
С 22-го 22 UTC до 22-го 24 UTC
Ветер 16 Узел от северо-восточный

TAF: TXKF 220544Z 2206/2306 35016KT 9999 SCT035 BKN060 BECMG 2222/2224 04016KT

Метеонаблюдения и прогнозы для более 4000 аэропортов (сводки METAR и TAF).

Имеющиеся станции представлены на карте желтыми и красными точками.

Чтобы увидеть название станции, наведите на нее мышь.

Затем щелкните, чтобы увидеть метеонаблюдения и метеопрогнозы.

Управление картой: чтобы увеличить масштаб, щелкните зеленые кнопки с черным крестиком; чтобы уменьшить масштаб, щелкните зеленую кнопку с тире; для просмотра соседних карт щелкайте зеленые стрелки.


METAR-TAF: